EXS90YX LMML-EGPF
Flight info
| Callsign | EXS90YX |
|---|---|
| Flight time | 3h 43m |
| Altitude | 38000 |
| Route | GZO M622 ADEXI DCT RONAB DCT ABESI DCT UTAVO DCT ELMUR DCT RIPUS DCT DITON DCT HOC DCT LUL DCT RLP DCT ROTSI DCT KOTUN DCT AMAXA DCT VESAN DCT RATUK DCT SOVAT L613 LEHOC DCT ASLIB |
| Aircraft | B738/M-SDE2E3FGHIRWXY/LB1 |
Departure
| Time | 2026-04-30 15:04 |
|---|---|
| Airport | Malta International Airport (LMML) |
Arrival
| Time | 2026-04-30 18:48 |
|---|---|
| Airport | Glasgow Airport (EGPF) |
| Time | Latitude | Longitude | Altitude | Speed | Heading |
|---|---|---|---|---|---|
| 2026-04-30 14:21 | 35.84858 | 14.49458 | 249 ft | 0 kts | 358° |
| 2026-04-30 14:58 | 35.84863 | 14.49451 | 249 ft | 3 kts | 311° |
| 2026-04-30 14:58 | 35.84875 | 14.49383 | 249 ft | 13 kts | 279° |
| 2026-04-30 14:58 | 35.84904 | 14.49123 | 250 ft | 17 kts | 276° |
| 2026-04-30 14:59 | 35.85039 | 14.48894 | 250 ft | 16 kts | 316° |
| 2026-04-30 15:00 | 35.85265 | 14.48617 | 250 ft | 15 kts | 314° |
| 2026-04-30 15:00 | 35.85406 | 14.48440 | 250 ft | 15 kts | 315° |
| 2026-04-30 15:01 | 35.85551 | 14.48268 | 250 ft | 14 kts | 316° |
| 2026-04-30 15:01 | 35.85601 | 14.48223 | 251 ft | 13 kts | 339° |
| 2026-04-30 15:01 | 35.85658 | 14.48134 | 252 ft | 1 kts | 271° |
| 2026-04-30 15:02 | 35.85658 | 14.48125 | 252 ft | 1 kts | 271° |
| 2026-04-30 15:02 | 35.85659 | 14.48117 | 252 ft | 1 kts | 271° |
| 2026-04-30 15:03 | 35.85603 | 14.47938 | 249 ft | 16 kts | 154° |
| 2026-04-30 15:03 | 35.85273 | 14.48342 | 250 ft | 86 kts | 135° |
| 2026-04-30 15:04 | 35.83917 | 14.50068 | 594 ft | 167 kts | 128° |
| 2026-04-30 15:04 | 35.80869 | 14.51678 | 2276 ft | 211 kts | 218° |
| 2026-04-30 15:05 | 35.78651 | 14.46195 | 3265 ft | 267 kts | 243° |
| 2026-04-30 15:06 | 35.76806 | 14.42246 | 5026 ft | 267 kts | 242° |
| 2026-04-30 15:06 | 35.75527 | 14.38034 | 6504 ft | 269 kts | 274° |
| 2026-04-30 15:07 | 35.76912 | 14.33918 | 8084 ft | 265 kts | 315° |
| 2026-04-30 15:07 | 35.80121 | 14.31683 | 9658 ft | 270 kts | 336° |
| 2026-04-30 15:08 | 35.83752 | 14.29986 | 10536 ft | 298 kts | 337° |
| 2026-04-30 15:08 | 35.90054 | 14.27018 | 11760 ft | 336 kts | 336° |
| 2026-04-30 15:09 | 35.94443 | 14.24932 | 13136 ft | 341 kts | 336° |
| 2026-04-30 15:09 | 35.98905 | 14.22798 | 14416 ft | 347 kts | 336° |
| 2026-04-30 15:10 | 36.03428 | 14.20613 | 15621 ft | 351 kts | 333° |
| 2026-04-30 15:11 | 36.11519 | 14.13695 | 18004 ft | 359 kts | 321° |
| 2026-04-30 15:11 | 36.15598 | 14.10024 | 19057 ft | 365 kts | 322° |
| 2026-04-30 15:12 | 36.21809 | 14.04501 | 20570 ft | 371 kts | 322° |
| 2026-04-30 15:13 | 36.26039 | 14.00748 | 21542 ft | 376 kts | 322° |
| 2026-04-30 15:14 | 36.34656 | 13.93091 | 23357 ft | 385 kts | 322° |
| 2026-04-30 15:14 | 36.41241 | 13.87224 | 24519 ft | 391 kts | 322° |
| 2026-04-30 15:16 | 36.52425 | 13.77231 | 26297 ft | 400 kts | 322° |
| 2026-04-30 15:17 | 36.61507 | 13.69070 | 27611 ft | 407 kts | 321° |
| 2026-04-30 15:18 | 36.73096 | 13.58620 | 29121 ft | 415 kts | 321° |
| 2026-04-30 15:19 | 36.80124 | 13.52265 | 30209 ft | 413 kts | 321° |
| 2026-04-30 17:39 | 50.01034 | 2.43507 | 36183 ft | 456 kts | 325° |
| 2026-04-30 17:42 | 50.26749 | 2.14503 | 36165 ft | 456 kts | 324° |
| 2026-04-30 17:43 | 50.39449 | 1.99764 | 36167 ft | 456 kts | 320° |
| 2026-04-30 17:44 | 50.53750 | 1.80029 | 36154 ft | 457 kts | 319° |
| 2026-04-30 17:47 | 50.75308 | 1.50304 | 36162 ft | 458 kts | 319° |
| 2026-04-30 17:48 | 50.92041 | 1.26993 | 36178 ft | 459 kts | 318° |
| 2026-04-30 17:50 | 51.11559 | 1.00812 | 36195 ft | 460 kts | 326° |
| 2026-04-30 17:52 | 51.27438 | 0.83487 | 36191 ft | 461 kts | 325° |
| 2026-04-30 17:54 | 51.51060 | 0.56963 | 36208 ft | 460 kts | 324° |
| 2026-04-30 17:56 | 51.71977 | 0.33198 | 36214 ft | 462 kts | 324° |
| 2026-04-30 17:58 | 51.87685 | 0.15167 | 36210 ft | 461 kts | 324° |
| 2026-04-30 18:00 | 52.08990 | -0.07918 | 36215 ft | 460 kts | 332° |
| 2026-04-30 18:01 | 52.23151 | -0.20127 | 36223 ft | 461 kts | 331° |
| 2026-04-30 18:02 | 52.40011 | -0.35067 | 36222 ft | 460 kts | 331° |
| 2026-04-30 18:04 | 52.56885 | -0.50139 | 36215 ft | 461 kts | 330° |
| 2026-04-30 18:06 | 52.79396 | -0.70459 | 36235 ft | 462 kts | 330° |
| 2026-04-30 18:08 | 52.99070 | -0.88416 | 36234 ft | 461 kts | 330° |
| 2026-04-30 18:10 | 53.21539 | -1.09117 | 36233 ft | 461 kts | 330° |
| 2026-04-30 18:11 | 53.41132 | -1.27372 | 36211 ft | 462 kts | 330° |
| 2026-04-30 18:13 | 53.55137 | -1.40594 | 36236 ft | 462 kts | 329° |
| 2026-04-30 18:14 | 53.69137 | -1.53922 | 36225 ft | 463 kts | 329° |
| 2026-04-30 18:15 | 53.77027 | -1.63178 | 36256 ft | 460 kts | 315° |
| 2026-04-30 18:15 | 53.84069 | -1.74249 | 36234 ft | 461 kts | 315° |
| 2026-04-30 18:16 | 53.93544 | -1.88928 | 36205 ft | 461 kts | 315° |
| 2026-04-30 18:17 | 53.97479 | -1.95021 | 36219 ft | 460 kts | 315° |
| 2026-04-30 18:18 | 54.04713 | -2.05797 | 36215 ft | 462 kts | 321° |
| 2026-04-30 18:18 | 54.09891 | -2.12271 | 36215 ft | 462 kts | 322° |
| 2026-04-30 18:19 | 54.15098 | -2.18693 | 36218 ft | 462 kts | 322° |
| 2026-04-30 18:19 | 54.20248 | -2.25179 | 36106 ft | 456 kts | 321° |
| 2026-04-30 18:19 | 54.22775 | -2.28398 | 35767 ft | 450 kts | 321° |
| 2026-04-30 18:20 | 54.25264 | -2.31583 | 35410 ft | 445 kts | 320° |
| 2026-04-30 18:20 | 54.27733 | -2.34749 | 35018 ft | 442 kts | 320° |
| 2026-04-30 18:20 | 54.30179 | -2.37892 | 34644 ft | 439 kts | 320° |
| 2026-04-30 18:20 | 54.32610 | -2.41019 | 34278 ft | 436 kts | 320° |
| 2026-04-30 18:21 | 54.35034 | -2.44142 | 33844 ft | 434 kts | 320° |
| 2026-04-30 18:21 | 54.37407 | -2.47204 | 33443 ft | 431 kts | 320° |
| 2026-04-30 18:21 | 54.39797 | -2.50290 | 33053 ft | 428 kts | 320° |
| 2026-04-30 18:21 | 54.42171 | -2.53359 | 32680 ft | 425 kts | 320° |
| 2026-04-30 18:22 | 54.44521 | -2.56408 | 32306 ft | 423 kts | 320° |
| 2026-04-30 18:22 | 54.49187 | -2.62465 | 31570 ft | 417 kts | 320° |
| 2026-04-30 18:22 | 54.51497 | -2.65468 | 31213 ft | 415 kts | 320° |
| 2026-04-30 18:23 | 54.53793 | -2.68455 | 30891 ft | 413 kts | 320° |
| 2026-04-30 18:23 | 54.56079 | -2.71438 | 30528 ft | 411 kts | 319° |
| 2026-04-30 18:23 | 54.58354 | -2.74410 | 30150 ft | 409 kts | 319° |
| 2026-04-30 18:23 | 54.60613 | -2.77367 | 29731 ft | 407 kts | 319° |
| 2026-04-30 18:24 | 54.65088 | -2.83234 | 28964 ft | 401 kts | 319° |
| 2026-04-30 18:24 | 54.67299 | -2.86139 | 28591 ft | 398 kts | 319° |
| 2026-04-30 18:24 | 54.69497 | -2.89030 | 28247 ft | 395 kts | 319° |
| 2026-04-30 18:25 | 54.71672 | -2.91899 | 27876 ft | 392 kts | 319° |
| 2026-04-30 18:25 | 54.75985 | -2.97596 | 27184 ft | 387 kts | 319° |
| 2026-04-30 18:25 | 54.78119 | -3.00418 | 26843 ft | 385 kts | 319° |
| 2026-04-30 18:26 | 54.82355 | -3.06024 | 26168 ft | 381 kts | 320° |
| 2026-04-30 18:26 | 54.84580 | -3.08542 | 25799 ft | 383 kts | 327° |
| 2026-04-30 18:26 | 54.86927 | -3.10803 | 25445 ft | 388 kts | 329° |
| 2026-04-30 18:27 | 54.91727 | -3.15282 | 24709 ft | 398 kts | 329° |
| 2026-04-30 18:27 | 54.94153 | -3.17608 | 24309 ft | 399 kts | 328° |
| 2026-04-30 18:28 | 54.98989 | -3.22343 | 23499 ft | 397 kts | 328° |
| 2026-04-30 18:28 | 55.01389 | -3.24709 | 23081 ft | 395 kts | 328° |
| 2026-04-30 18:28 | 55.06151 | -3.29416 | 22301 ft | 391 kts | 328° |
| 2026-04-30 18:29 | 55.08507 | -3.31752 | 21915 ft | 389 kts | 328° |
| 2026-04-30 18:29 | 55.15505 | -3.38708 | 20807 ft | 382 kts | 328° |
| 2026-04-30 18:30 | 55.20101 | -3.43290 | 20031 ft | 379 kts | 328° |
| 2026-04-30 18:30 | 55.24746 | -3.47934 | 18883 ft | 389 kts | 328° |
| 2026-04-30 18:31 | 55.27112 | -3.50304 | 18233 ft | 394 kts | 328° |
| 2026-04-30 18:31 | 55.31902 | -3.55109 | 16937 ft | 399 kts | 328° |
| 2026-04-30 18:32 | 55.36735 | -3.59971 | 15711 ft | 402 kts | 328° |
| 2026-04-30 18:32 | 55.39132 | -3.62388 | 15110 ft | 403 kts | 328° |
| 2026-04-30 18:32 | 55.43990 | -3.67299 | 13892 ft | 404 kts | 328° |
| 2026-04-30 18:33 | 55.46471 | -3.69812 | 13191 ft | 406 kts | 328° |
| 2026-04-30 18:33 | 55.50225 | -3.76687 | 11982 ft | 387 kts | 290° |
| 2026-04-30 18:33 | 55.51065 | -3.81026 | 11654 ft | 362 kts | 281° |
| 2026-04-30 18:34 | 55.51700 | -3.85227 | 11192 ft | 348 kts | 279° |
| 2026-04-30 18:34 | 55.52834 | -3.93179 | 10633 ft | 319 kts | 279° |
| 2026-04-30 18:34 | 55.53359 | -3.96900 | 10378 ft | 307 kts | 279° |
| 2026-04-30 18:35 | 55.53868 | -4.00500 | 10138 ft | 296 kts | 278° |
| 2026-04-30 18:35 | 55.54301 | -4.03994 | 9876 ft | 288 kts | 276° |
| 2026-04-30 18:35 | 55.54692 | -4.07437 | 9606 ft | 284 kts | 276° |
| 2026-04-30 18:36 | 55.55279 | -4.14269 | 9236 ft | 274 kts | 273° |
| 2026-04-30 18:36 | 55.55503 | -4.17501 | 8950 ft | 264 kts | 268° |
| 2026-04-30 18:36 | 55.55565 | -4.23941 | 8087 ft | 261 kts | 266° |
| 2026-04-30 18:37 | 55.55584 | -4.27126 | 7695 ft | 258 kts | 266° |
| 2026-04-30 18:37 | 55.55596 | -4.30294 | 7300 ft | 258 kts | 266° |
| 2026-04-30 18:37 | 55.55603 | -4.33440 | 6976 ft | 254 kts | 266° |
| 2026-04-30 18:37 | 55.55608 | -4.36501 | 6783 ft | 244 kts | 266° |
| 2026-04-30 18:38 | 55.55612 | -4.39469 | 6498 ft | 239 kts | 266° |
| 2026-04-30 18:38 | 55.55615 | -4.42407 | 6105 ft | 240 kts | 266° |
| 2026-04-30 18:38 | 55.55613 | -4.45374 | 5823 ft | 241 kts | 266° |
| 2026-04-30 18:38 | 55.55610 | -4.48290 | 5736 ft | 234 kts | 265° |
| 2026-04-30 18:39 | 55.55612 | -4.51128 | 5586 ft | 230 kts | 265° |
| 2026-04-30 18:39 | 55.55620 | -4.53946 | 5373 ft | 228 kts | 266° |
| 2026-04-30 18:39 | 55.55635 | -4.56660 | 5329 ft | 215 kts | 266° |
| 2026-04-30 18:39 | 55.55651 | -4.59243 | 5155 ft | 208 kts | 266° |
| 2026-04-30 18:40 | 55.55904 | -4.61749 | 4869 ft | 211 kts | 294° |
| 2026-04-30 18:40 | 55.56783 | -4.63812 | 4652 ft | 209 kts | 309° |
| 2026-04-30 18:40 | 55.57748 | -4.65785 | 4472 ft | 215 kts | 308° |
| 2026-04-30 18:40 | 55.58713 | -4.67765 | 4375 ft | 215 kts | 308° |
| 2026-04-30 18:41 | 55.59740 | -4.69683 | 4272 ft | 216 kts | 323° |
| 2026-04-30 18:41 | 55.61045 | -4.70927 | 4220 ft | 212 kts | 333° |
| 2026-04-30 18:41 | 55.62376 | -4.72118 | 4109 ft | 216 kts | 335° |
| 2026-04-30 18:41 | 55.63814 | -4.72872 | 4003 ft | 217 kts | 355° |
| 2026-04-30 18:42 | 55.65312 | -4.72958 | 3896 ft | 214 kts | 3° |
| 2026-04-30 18:42 | 55.68300 | -4.72690 | 3621 ft | 215 kts | 12° |
| 2026-04-30 18:42 | 55.69765 | -4.72241 | 3489 ft | 213 kts | 14° |
| 2026-04-30 18:45 | 55.79524 | -4.57709 | 2021 ft | 159 kts | 52° |
| 2026-04-30 18:45 | 55.80280 | -4.56288 | 1833 ft | 155 kts | 50° |
| 2026-04-30 18:45 | 55.81023 | -4.54891 | 1599 ft | 153 kts | 52° |
| 2026-04-30 18:46 | 55.81764 | -4.53500 | 1389 ft | 158 kts | 52° |
| 2026-04-30 18:46 | 55.82505 | -4.52111 | 1162 ft | 152 kts | 50° |
| 2026-04-30 18:46 | 55.83211 | -4.50785 | 953 ft | 147 kts | 49° |
| 2026-04-30 18:46 | 55.83898 | -4.49496 | 792 ft | 139 kts | 50° |
| 2026-04-30 18:47 | 55.84555 | -4.48265 | 526 ft | 136 kts | 47° |
| 2026-04-30 18:47 | 55.85202 | -4.47057 | 345 ft | 133 kts | 46° |
| 2026-04-30 18:47 | 55.85838 | -4.45872 | 198 ft | 137 kts | 48° |
| 2026-04-30 18:47 | 55.86504 | -4.44626 | 46 ft | 140 kts | 46° |
| 2026-04-30 18:48 | 55.87129 | -4.43461 | 28 ft | 110 kts | 46° |
| 2026-04-30 18:48 | 55.87487 | -4.42799 | 28 ft | 37 kts | 46° |
| 2026-04-30 18:48 | 55.87662 | -4.42471 | 28 ft | 35 kts | 46° |
| 2026-04-30 18:48 | 55.87749 | -4.42292 | 28 ft | 15 kts | 67° |
| 2026-04-30 18:49 | 55.87704 | -4.42163 | 28 ft | 13 kts | 154° |
| 2026-04-30 18:49 | 55.87621 | -4.42162 | 28 ft | 12 kts | 214° |
| 2026-04-30 18:49 | 55.87561 | -4.42269 | 28 ft | 12 kts | 227° |
| 2026-04-30 18:49 | 55.87504 | -4.42377 | 28 ft | 12 kts | 227° |
| 2026-04-30 18:50 | 55.87447 | -4.42485 | 28 ft | 13 kts | 226° |
| 2026-04-30 18:50 | 55.87361 | -4.42604 | 28 ft | 18 kts | 206° |
| 2026-04-30 18:50 | 55.87247 | -4.42684 | 28 ft | 17 kts | 201° |
| 2026-04-30 18:50 | 55.87136 | -4.42760 | 28 ft | 17 kts | 201° |
| 2026-04-30 18:51 | 55.87029 | -4.42829 | 28 ft | 16 kts | 200° |
| 2026-04-30 18:51 | 55.86930 | -4.42908 | 28 ft | 15 kts | 205° |
| 2026-04-30 18:51 | 55.86850 | -4.43021 | 28 ft | 15 kts | 249° |
| 2026-04-30 18:51 | 55.86821 | -4.43197 | 28 ft | 15 kts | 253° |
| 2026-04-30 18:52 | 55.86791 | -4.43379 | 28 ft | 16 kts | 254° |
| 2026-04-30 18:52 | 55.86762 | -4.43560 | 28 ft | 13 kts | 247° |
| 2026-04-30 18:52 | 55.86688 | -4.43600 | 28 ft | 12 kts | 167° |
| 2026-04-30 18:52 | 55.86606 | -4.43560 | 28 ft | 12 kts | 163° |
| 2026-04-30 18:53 | 55.86544 | -4.43549 | 28 ft | 8 kts | 217° |
| 2026-04-30 18:53 | 55.86523 | -4.43635 | 28 ft | 2 kts | 254° |
| 2026-04-30 18:53 | 55.86519 | -4.43661 | 28 ft | 2 kts | 254° |
| 2026-04-30 18:53 | 55.86516 | -4.43676 | 28 ft | 0 kts | 254° |